Time;durP1;ratioP1;P1;durP2;ratioP2;P2;SDS_P1;SDS_P2;PMS_P1;PMS_P2;Temp;Humidity;BMP_temperature;BMP_pressure;BME280_temperature;BME280_humidity;BME280_pressure;Samples;Min_cycle;Max_cycle;Signal;HPM_P1;HPM_P2
2023/09/01 00:00:22;;;;;;;;;0.00;0.00;;;;;-146.67;100.00;57155.34;5080229;28;8804;-80
2023/09/01 00:02:47;;;;;;;;;1.00;0.00;;;;;-146.67;100.00;57155.34;5056536;28;8821;-80
2023/09/01 00:05:13;;;;;;;;;0.50;0.00;;;;;-146.67;100.00;57155.34;5067010;28;8959;-80
2023/09/01 00:07:38;;;;;;;;;0.00;0.00;;;;;-146.67;100.00;57155.34;5064652;28;9758;-81
2023/09/01 00:10:05;;;;;;;;;0.00;0.00;;;;;-146.67;100.00;57155.34;5064273;28;8807;-81
2023/09/01 00:12:30;;;;;;;;;3.00;0.00;;;;;-146.67;100.00;57155.34;5064151;28;8820;-81
2023/09/01 00:14:56;;;;;;;;;0.75;0.75;;;;;-146.67;100.00;57155.34;5080518;28;10522;-81
2023/09/01 00:17:22;;;;;;;;;0.75;0.00;;;;;-146.67;100.00;57155.34;5081401;28;8848;-81
2023/09/01 00:19:47;;;;;;;;;0.00;0.00;;;;;-146.67;100.00;57155.34;5080069;28;9668;-80
2023/09/01 00:22:13;;;;;;;;;0.00;0.00;;;;;-146.67;100.00;57155.34;5082054;28;8789;-81
2023/09/01 00:24:38;;;;;;;;;1.25;0.00;;;;;-146.67;100.00;57155.34;5080652;28;10163;-81
2023/09/01 00:27:04;;;;;;;;;0.00;0.00;;;;;-146.67;100.00;57155.34;5080673;28;9573;-80
2023/09/01 00:29:33;;;;;;;;;0.00;0.00;;;;;-146.67;100.00;57155.34;5080487;28;8820;-80
2023/09/01 00:31:58;;;;;;;;;0.00;0.00;;;;;-146.67;100.00;57155.34;5080345;28;8738;-80
2023/09/01 00:34:24;;;;;;;;;1.00;0.00;;;;;-146.67;100.00;57155.34;5081170;28;9792;-81
2023/09/01 00:36:50;;;;;;;;;0.00;0.00;;;;;-146.67;100.00;57155.34;5080968;28;8847;-80
2023/09/01 00:39:16;;;;;;;;;0.00;0.00;;;;;-146.67;100.00;57155.34;5063489;28;8805;-80
2023/09/01 00:41:41;;;;;;;;;0.00;0.00;;;;;-146.67;100.00;57155.34;5080437;28;10300;-80
2023/09/01 00:44:08;;;;;;;;;0.00;0.00;;;;;-146.67;100.00;57155.34;5063513;28;11228;-80
2023/09/01 00:46:34;;;;;;;;;0.00;0.00;;;;;-146.67;100.00;57155.34;5081430;28;8980;-81
2023/09/01 00:48:59;;;;;;;;;0.00;0.00;;;;;-146.67;100.00;57155.34;5063889;28;9668;-81
2023/09/01 00:51:25;;;;;;;;;1.00;0.00;;;;;-146.67;100.00;57155.34;5063164;28;8785;-81
2023/09/01 00:53:51;;;;;;;;;0.00;0.00;;;;;-146.67;100.00;57155.34;5081705;28;8742;-80
2023/09/01 00:56:19;;;;;;;;;0.75;0.00;;;;;-146.67;100.00;57155.34;5081524;28;9467;-80
2023/09/01 00:58:44;;;;;;;;;1.00;0.00;;;;;-146.67;100.00;57155.34;5063019;28;9581;-81
2023/09/01 01:01:11;;;;;;;;;0.00;0.00;;;;;-146.67;100.00;57155.34;5081209;28;9378;-81
2023/09/01 01:03:38;;;;;;;;;0.33;0.00;;;;;-146.67;100.00;57155.34;5082056;28;10099;-81
2023/09/01 01:06:23;;;;;;;;;0.00;0.00;;;;;-146.67;100.00;57155.34;5084880;28;8750;-81
2023/09/01 01:09:08;;;;;;;;;0.00;0.00;;;;;-146.67;100.00;57155.34;5084977;28;9550;-81
2023/09/01 01:11:43;;;;;;;;;0.00;0.00;;;;;-146.67;100.00;57155.34;5066661;28;9414;-81
2023/09/01 01:14:15;;;;;;;;;0.00;0.00;;;;;-146.67;100.00;57155.34;5066803;28;10261;-81
2023/09/01 01:16:41;;;;;;;;;1.00;0.00;;;;;-146.67;100.00;57155.34;5083856;28;9335;-81
2023/09/01 01:19:36;;;;;;;;;1.00;0.00;;;;;-146.67;100.00;57155.34;5066803;28;9531;-81
2023/09/01 01:22:05;;;;;;;;;0.00;0.00;;;;;-146.67;100.00;57155.34;5051317;28;9373;-81
2023/09/01 01:24:32;;;;;;;;;0.00;0.00;;;;;-146.67;100.00;57155.34;5084551;28;9701;-81
2023/09/01 01:26:58;;;;;;;;;0.67;0.00;;;;;-146.67;100.00;57155.34;5066335;28;9421;-81
2023/09/01 01:29:23;;;;;;;;;0.00;0.00;;;;;-146.67;100.00;57155.34;5085025;28;9544;-81
2023/09/01 01:31:48;;;;;;;;;0.00;0.00;;;;;-146.67;100.00;57155.34;5083876;28;8771;-81
2023/09/01 01:34:24;;;;;;;;;1.00;0.00;;;;;-146.67;100.00;57155.34;5066635;28;10119;-81
2023/09/01 01:37:03;;;;;;;;;0.00;0.00;;;;;-146.67;100.00;57155.34;5084562;28;8816;-81
2023/09/01 01:39:33;;;;;;;;;0.00;0.00;;;;;-146.67;100.00;57155.34;5066474;28;9495;-81
2023/09/01 01:42:13;;;;;;;;;1.00;0.00;;;;;-146.67;100.00;57155.34;5084494;28;10307;-81
2023/09/01 01:44:43;;;;;;;;;0.00;0.00;;;;;-146.67;100.00;57155.34;5084141;28;10465;-81
2023/09/01 01:47:11;;;;;;;;;0.25;0.00;;;;;-146.67;100.00;57155.34;5065904;28;9588;-81
2023/09/01 01:49:36;;;;;;;;;0.00;0.00;;;;;-146.67;100.00;57155.34;5066186;28;9519;-81
2023/09/01 01:52:02;;;;;;;;;0.00;0.00;;;;;-146.67;100.00;57155.34;5081620;28;9569;-81
2023/09/01 01:54:29;;;;;;;;;1.33;0.00;;;;;-146.67;100.00;57155.34;5082684;28;8797;-81
2023/09/01 01:56:54;;;;;;;;;0.00;0.00;;;;;-146.67;100.00;57155.34;5082074;28;8837;-81
2023/09/01 01:59:20;;;;;;;;;1.00;0.00;;;;;-146.67;100.00;57155.34;5065220;28;9512;-81
2023/09/01 02:01:45;;;;;;;;;0.00;0.00;;;;;-146.67;100.00;57155.34;5064725;28;9858;-81
2023/09/01 02:04:10;;;;;;;;;0.00;0.00;;;;;-146.67;100.00;57155.34;5065998;28;9830;-81
2023/09/01 02:06:36;;;;;;;;;0.00;0.00;;;;;-146.67;100.00;57155.34;5065614;28;8976;-81
2023/09/01 02:09:03;;;;;;;;;0.00;0.00;;;;;-146.67;100.00;57155.34;5082687;28;8810;-80
2023/09/01 02:11:29;;;;;;;;;0.00;0.00;;;;;-146.67;100.00;57155.34;5084507;28;8747;-81
2023/09/01 02:13:56;;;;;;;;;0.00;0.00;;;;;-146.67;100.00;57155.34;5065730;28;9898;-81
2023/09/01 02:16:24;;;;;;;;;0.00;0.00;;;;;-146.67;100.00;57155.34;5083229;28;8771;-81
2023/09/01 02:18:49;;;;;;;;;0.00;0.00;;;;;-146.67;100.00;57155.34;5084069;28;9651;-81
2023/09/01 02:21:22;;;;;;;;;0.33;0.00;;;;;-146.67;100.00;57155.34;5064731;28;9398;-81
2023/09/01 02:23:48;;;;;;;;;0.00;0.00;;;;;-146.67;100.00;57155.34;5065972;28;9986;-81
2023/09/01 02:26:20;;;;;;;;;0.00;0.00;;;;;-146.67;100.00;57155.34;5065480;28;9625;-80
2023/09/01 02:28:47;;;;;;;;;0.00;0.00;;;;;-146.67;100.00;57155.34;5083867;28;11321;-80
2023/09/01 02:31:13;;;;;;;;;1.00;0.00;;;;;-146.67;100.00;57155.34;5065120;28;9588;-81
2023/09/01 02:33:38;;;;;;;;;0.00;0.00;;;;;-146.67;100.00;57155.34;5084006;28;10369;-81
2023/09/01 02:36:23;;;;;;;;;0.00;0.00;;;;;-146.67;100.00;57155.34;5066003;28;8803;-81
2023/09/01 02:38:49;;;;;;;;;0.00;0.00;;;;;-146.67;100.00;57155.34;5083600;28;8732;-80
2023/09/01 02:41:14;;;;;;;;;0.00;0.00;;;;;-146.67;100.00;57155.34;5083697;28;9612;-81
2023/09/01 02:43:40;;;;;;;;;0.00;0.00;;;;;-146.67;100.00;57155.34;5064960;28;9859;-81
2023/09/01 02:46:05;;;;;;;;;0.50;0.00;;;;;-146.67;100.00;57155.34;5065228;28;8787;-81
2023/09/01 02:48:30;;;;;;;;;0.33;0.00;;;;;-146.67;100.00;57155.34;5083279;28;8837;-81
2023/09/01 02:50:56;;;;;;;;;0.00;0.00;;;;;-146.67;100.00;57155.34;5081768;28;8834;-81
2023/09/01 02:53:21;;;;;;;;;0.75;0.00;;;;;-146.67;100.00;57155.34;5065283;28;10100;-81
2023/09/01 02:55:46;;;;;;;;;0.00;0.00;;;;;-146.67;100.00;57155.34;5064820;28;8895;-81
2023/09/01 02:58:12;;;;;;;;;0.00;0.00;;;;;-146.67;100.00;57155.34;5081856;28;8827;-81
2023/09/01 03:00:38;;;;;;;;;0.00;0.00;;;;;-146.67;100.00;57155.34;5081073;28;8809;-81
2023/09/01 03:03:03;;;;;;;;;0.00;0.00;;;;;-146.67;100.00;57155.34;5065472;28;9990;-81
2023/09/01 03:05:29;;;;;;;;;0.00;0.00;;;;;-146.67;100.00;57155.34;5082641;28;11446;-81
2023/09/01 03:07:57;;;;;;;;;0.00;0.00;;;;;-146.67;100.00;57155.34;5083371;28;8793;-81
2023/09/01 03:10:23;;;;;;;;;0.00;0.00;;;;;-146.67;100.00;57155.34;5082847;28;8754;-81
2023/09/01 03:12:49;;;;;;;;;0.25;0.00;;;;;-146.67;100.00;57155.34;5082646;28;9723;-81
2023/09/01 03:15:15;;;;;;;;;0.00;0.00;;;;;-146.67;100.00;57155.34;5064670;28;8837;-81
2023/09/01 03:17:40;;;;;;;;;0.50;0.00;;;;;-146.67;100.00;57155.34;5064567;28;8833;-81
2023/09/01 03:20:09;;;;;;;;;0.00;0.00;;;;;-146.67;100.00;57155.34;5056654;28;10114;-81
2023/09/01 03:22:35;;;;;;;;;2.00;0.00;;;;;-146.67;100.00;57155.34;5082672;28;9671;-81
2023/09/01 03:25:01;;;;;;;;;0.75;0.00;;;;;-146.67;100.00;57155.34;5063959;28;9428;-81
2023/09/01 03:27:27;;;;;;;;;2.00;0.00;;;;;-146.67;100.00;57155.34;5064648;28;9309;-81
2023/09/01 03:29:56;;;;;;;;;0.00;0.00;;;;;-146.67;100.00;57155.34;5064529;28;9507;-81
2023/09/01 03:32:21;;;;;;;;;2.00;0.00;;;;;-146.67;100.00;57155.34;5076391;28;11180;-81
2023/09/01 03:34:47;;;;;;;;;1.00;0.00;;;;;-146.67;100.00;57155.34;5064313;28;9578;-81
2023/09/01 03:37:13;;;;;;;;;0.00;0.00;;;;;-146.67;100.00;57155.34;5098540;28;8789;-81
2023/09/01 03:39:38;;;;;;;;;0.00;0.00;;;;;-146.67;100.00;57155.34;5082641;28;9613;-81
2023/09/01 03:42:04;;;;;;;;;0.00;0.00;;;;;-146.67;100.00;57155.34;5082712;28;8793;-81
2023/09/01 03:44:29;;;;;;;;;0.00;0.00;;;;;-146.67;100.00;57155.34;5082309;28;8813;-81
2023/09/01 03:46:55;;;;;;;;;1.00;1.00;;;;;-146.67;100.00;57155.34;5063969;28;8819;-80
2023/09/01 03:49:21;;;;;;;;;0.00;0.00;;;;;-146.67;100.00;57155.34;5064534;28;8796;-80
2023/09/01 03:51:46;;;;;;;;;0.75;0.50;;;;;-146.67;100.00;57155.34;5064060;28;10507;-81
2023/09/01 03:54:12;;;;;;;;;4.00;0.00;;;;;-146.67;100.00;57155.34;5064422;28;9566;-81
2023/09/01 03:56:37;;;;;;;;;0.00;0.00;;;;;-146.67;100.00;57155.34;5063809;28;8878;-81
2023/09/01 03:59:03;;;;;;;;;0.00;0.00;;;;;-146.67;100.00;57155.34;5064133;28;8848;-81
2023/09/01 04:01:28;;;;;;;;;0.00;0.00;;;;;-146.67;100.00;57155.34;5064287;28;9901;-81
2023/09/01 04:03:53;;;;;;;;;1.00;0.00;;;;;-146.67;100.00;57155.34;5082124;28;8870;-81
2023/09/01 04:06:19;;;;;;;;;1.00;1.00;;;;;-146.67;100.00;57155.34;5078690;28;8795;-81
2023/09/01 04:08:44;;;;;;;;;1.00;0.00;;;;;-146.67;100.00;57155.34;5064409;28;8799;-81
2023/09/01 04:11:10;;;;;;;;;0.00;0.00;;;;;-146.67;100.00;57155.34;5063751;28;9827;-81
2023/09/01 04:13:35;;;;;;;;;1.00;0.00;;;;;-146.67;100.00;57155.34;5082554;28;8779;-81
2023/09/01 04:16:01;;;;;;;;;0.50;0.00;;;;;-146.67;100.00;57155.34;5063665;28;8798;-80
2023/09/01 04:18:26;;;;;;;;;0.75;0.50;;;;;-146.67;100.00;57155.34;5082342;28;8835;-80
2023/09/01 04:20:53;;;;;;;;;0.00;0.00;;;;;-146.67;100.00;57155.34;5081638;28;8786;-81
2023/09/01 04:23:19;;;;;;;;;0.50;0.25;;;;;-146.67;100.00;57155.34;5064230;28;8750;-81
2023/09/01 04:25:46;;;;;;;;;0.25;0.00;;;;;-146.67;100.00;57155.34;5063868;28;9640;-81
2023/09/01 04:28:13;;;;;;;;;0.50;0.00;;;;;-146.67;100.00;57155.34;5082156;28;9496;-81
2023/09/01 04:30:39;;;;;;;;;0.00;0.00;;;;;-146.67;100.00;57155.34;5063637;28;9994;-80
2023/09/01 04:33:05;;;;;;;;;0.00;0.00;;;;;-146.67;100.00;57155.34;5063852;28;10230;-81
2023/09/01 04:35:31;;;;;;;;;1.00;1.00;;;;;-146.67;100.00;57155.34;5082261;28;8727;-81
2023/09/01 04:37:57;;;;;;;;;0.75;0.00;;;;;-146.67;100.00;57155.34;5100891;28;9667;-81
2023/09/01 04:40:22;;;;;;;;;4.00;0.50;;;;;-146.67;100.00;57155.34;5085228;28;10007;-81
2023/09/01 04:42:47;;;;;;;;;0.00;0.00;;;;;-146.67;100.00;57155.34;5067561;28;8814;-81
2023/09/01 04:45:13;;;;;;;;;1.75;0.00;;;;;-146.67;100.00;57155.34;5067060;28;8802;-81
2023/09/01 04:47:39;;;;;;;;;3.75;0.00;;;;;-146.67;100.00;57155.34;5067073;28;8814;-81
2023/09/01 04:50:05;;;;;;;;;1.00;0.00;;;;;-146.67;100.00;57155.34;5071876;28;9875;-81
2023/09/01 04:52:30;;;;;;;;;0.00;0.00;;;;;-146.67;100.00;57155.34;5105570;28;8928;-80
2023/09/01 04:54:55;;;;;;;;;0.50;0.00;;;;;-146.67;100.00;57155.34;5084100;28;8901;-81
2023/09/01 04:57:21;;;;;;;;;1.00;1.00;;;;;-146.67;100.00;57155.34;5067060;28;8790;-80
2023/09/01 04:59:48;;;;;;;;;0.00;0.00;;;;;-146.67;100.00;57155.34;5085334;28;8814;-81
2023/09/01 05:02:14;;;;;;;;;1.00;1.00;;;;;-146.67;100.00;57155.34;5100687;28;8758;-81
2023/09/01 05:04:39;;;;;;;;;1.00;0.00;;;;;-146.67;100.00;57155.34;5084997;28;9569;-81
2023/09/01 05:07:04;;;;;;;;;0.00;0.00;;;;;-146.67;100.00;57155.34;5067195;28;10924;-81
2023/09/01 05:09:30;;;;;;;;;0.25;0.00;;;;;-146.67;100.00;57155.34;5084816;28;8810;-81
2023/09/01 05:11:55;;;;;;;;;0.00;0.00;;;;;-146.67;100.00;57155.34;5085413;28;8877;-80
2023/09/01 05:14:21;;;;;;;;;0.00;0.00;;;;;-146.67;100.00;57155.34;5067047;28;9530;-82
2023/09/01 05:16:46;;;;;;;;;0.00;0.00;;;;;-146.67;100.00;57155.34;5076436;28;8828;-81
2023/09/01 05:19:11;;;;;;;;;0.50;0.00;;;;;-146.67;100.00;57155.34;5105496;28;8891;-80
2023/09/01 05:21:37;;;;;;;;;0.00;0.00;;;;;-146.67;100.00;57155.34;5103294;28;8954;-80
2023/09/01 05:24:02;;;;;;;;;0.25;0.00;;;;;-146.67;100.00;57155.34;5086974;28;8911;-81
2023/09/01 05:26:28;;;;;;;;;1.33;0.00;;;;;-146.67;100.00;57155.34;5086822;28;8785;-80
2023/09/01 05:28:53;;;;;;;;;0.00;0.00;;;;;-146.67;100.00;57155.34;5105328;28;8784;-79
2023/09/01 05:31:18;;;;;;;;;0.00;0.00;;;;;-146.67;100.00;57155.34;5105024;28;8776;-78
2023/09/01 05:33:44;;;;;;;;;0.00;0.00;;;;;-146.67;100.00;57155.34;5105149;28;8831;-79
2023/09/01 05:36:09;;;;;;;;;0.25;0.25;;;;;-146.67;100.00;57155.34;5105055;28;8838;-79
2023/09/01 05:38:34;;;;;;;;;1.50;0.00;;;;;-146.67;100.00;57155.34;5083828;28;10230;-79
2023/09/01 05:41:02;;;;;;;;;0.00;0.00;;;;;-146.67;100.00;57155.34;5099209;28;10172;-86
2023/09/01 05:43:28;;;;;;;;;0.50;0.00;;;;;-146.67;100.00;57155.34;5065472;28;8797;-86
2023/09/01 05:45:54;;;;;;;;;1.00;1.00;;;;;-146.67;100.00;57155.34;5083189;28;9661;-84
2023/09/01 05:48:20;;;;;;;;;0.00;0.00;;;;;-146.67;100.00;57155.34;5083047;28;9885;-86
2023/09/01 05:50:45;;;;;;;;;0.00;0.00;;;;;-146.67;100.00;57155.34;5083156;28;8799;-86
2023/09/01 05:53:10;;;;;;;;;0.00;0.00;;;;;-146.67;100.00;57155.34;5083583;28;8864;-85
2023/09/01 05:55:37;;;;;;;;;0.00;0.00;;;;;-146.67;100.00;57155.34;5083328;28;8875;-85
2023/09/01 05:58:03;;;;;;;;;0.00;0.00;;;;;-146.67;100.00;57155.34;5065574;28;10018;-86
2023/09/01 06:00:29;;;;;;;;;1.00;0.00;;;;;-146.67;100.00;57155.34;5065302;28;9572;-81
2023/09/01 06:02:56;;;;;;;;;0.00;0.00;;;;;-146.67;100.00;57155.34;5065377;28;9425;-82
2023/09/01 06:05:21;;;;;;;;;2.00;1.00;;;;;-146.67;100.00;57155.34;5083106;28;11027;-81
2023/09/01 06:07:47;;;;;;;;;1.00;0.00;;;;;-146.67;100.00;57155.34;5064974;28;9820;-81
2023/09/01 06:10:13;;;;;;;;;0.00;0.00;;;;;-146.67;100.00;57155.34;5065160;28;8799;-82
2023/09/01 06:12:38;;;;;;;;;0.00;0.00;;;;;-146.67;100.00;57155.34;5083261;28;8783;-82
2023/09/01 06:15:05;;;;;;;;;0.00;0.00;;;;;-146.67;100.00;57155.34;5064894;28;8818;-81
2023/09/01 06:17:30;;;;;;;;;0.00;0.00;;;;;-146.67;100.00;57155.34;5065037;28;10227;-81
2023/09/01 06:19:56;;;;;;;;;0.00;0.00;;;;;-146.67;100.00;57155.34;5065041;28;9554;-82
2023/09/01 06:22:22;;;;;;;;;0.00;0.00;;;;;-146.67;100.00;57155.34;5083079;28;8799;-83
2023/09/01 06:24:47;;;;;;;;;0.67;0.33;;;;;-146.67;100.00;57155.34;5065571;28;11367;-82
2023/09/01 06:27:12;;;;;;;;;0.00;0.00;;;;;-146.67;100.00;57155.34;5064997;28;10141;-82
2023/09/01 06:29:38;;;;;;;;;0.00;0.00;;;;;-146.67;100.00;57155.34;5085568;28;8792;-82
2023/09/01 06:32:04;;;;;;;;;0.00;0.00;;;;;-146.67;100.00;57155.34;5083287;28;8913;-82
2023/09/01 06:34:31;;;;;;;;;0.00;0.00;;;;;-146.67;100.00;57155.34;5083283;28;8791;-81
2023/09/01 06:36:57;;;;;;;;;0.00;0.00;;;;;-146.67;100.00;57155.34;5082272;28;9653;-81
2023/09/01 06:39:23;;;;;;;;;0.00;0.00;;;;;-146.67;100.00;57155.34;5078768;28;9502;-85
2023/09/01 06:41:48;;;;;;;;;0.00;0.00;;;;;-146.67;100.00;57155.34;5065799;28;9488;-85
2023/09/01 06:44:13;;;;;;;;;0.00;0.00;;;;;-146.67;100.00;57155.34;5062272;28;8811;-83
2023/09/01 06:46:39;;;;;;;;;0.00;0.00;;;;;-146.67;100.00;57155.34;5064017;28;9826;-79
2023/09/01 06:49:04;;;;;;;;;2.67;0.00;;;;;-146.67;100.00;57155.34;5083100;28;8798;-77
2023/09/01 06:51:30;;;;;;;;;0.00;0.00;;;;;-146.67;100.00;57155.34;5063953;28;8920;-78
2023/09/01 06:53:55;;;;;;;;;0.00;0.00;;;;;-146.67;100.00;57155.34;5083247;28;8795;-78
2023/09/01 06:56:21;;;;;;;;;0.00;0.00;;;;;-146.67;100.00;57155.34;5083209;28;8820;-78
2023/09/01 06:58:46;;;;;;;;;0.33;0.33;;;;;-146.67;100.00;57155.34;5103499;28;8801;-78
2023/09/01 07:01:12;;;;;;;;;0.00;0.00;;;;;-146.67;100.00;57155.34;5075922;28;8822;-79
2023/09/01 07:03:38;;;;;;;;;1.33;0.00;;;;;-146.67;100.00;57155.34;5064438;28;8739;-79
2023/09/01 07:06:10;;;;;;;;;0.00;0.00;;;;;-146.67;100.00;57155.34;5064145;28;10143;-78
2023/09/01 07:08:36;;;;;;;;;0.00;0.00;;;;;-146.67;100.00;57155.34;5064791;28;8931;-81
2023/09/01 07:11:09;;;;;;;;;0.00;0.00;;;;;-146.67;100.00;57155.34;5065009;28;9402;-82
2023/09/01 07:13:34;;;;;;;;;0.00;0.00;;;;;-146.67;100.00;57155.34;5064783;28;8759;-81
2023/09/01 07:16:00;;;;;;;;;0.00;0.00;;;;;-146.67;100.00;57155.34;5064251;28;9907;-81
2023/09/01 07:18:25;;;;;;;;;0.67;0.00;;;;;-146.67;100.00;57155.34;5081212;28;8853;-81
2023/09/01 07:20:51;;;;;;;;;2.00;0.67;;;;;-146.67;100.00;57155.34;5081619;28;8783;-81
2023/09/01 07:23:18;;;;;;;;;0.00;0.00;;;;;-146.67;100.00;57155.34;5082335;28;8815;-81
2023/09/01 07:25:44;;;;;;;;;0.00;0.00;;;;;-146.67;100.00;57155.34;5080807;28;11483;-81
2023/09/01 07:28:12;;;;;;;;;0.00;0.00;;;;;-146.67;100.00;57155.34;5088851;28;9321;-81
2023/09/01 07:30:37;;;;;;;;;0.00;0.00;;;;;-146.67;100.00;57155.34;5084357;28;8721;-81
2023/09/01 07:33:03;;;;;;;;;0.00;0.00;;;;;-146.67;100.00;57155.34;5084678;28;9414;-81
2023/09/01 07:35:28;;;;;;;;;0.00;0.00;;;;;-146.67;100.00;57155.34;5083455;28;10895;-81
2023/09/01 07:37:55;;;;;;;;;0.00;0.00;;;;;-146.67;100.00;57155.34;5084586;28;8923;-81
2023/09/01 07:40:20;;;;;;;;;0.00;0.00;;;;;-146.67;100.00;57155.34;5101461;28;8721;-81
2023/09/01 07:42:46;;;;;;;;;0.00;0.00;;;;;-146.67;100.00;57155.34;5082276;28;9582;-81
2023/09/01 07:45:11;;;;;;;;;0.00;0.00;;;;;-146.67;100.00;57155.34;5066623;28;9877;-81
2023/09/01 07:47:37;;;;;;;;;0.00;0.00;;;;;-146.67;100.00;57155.34;5080699;28;8817;-81
2023/09/01 07:50:02;;;;;;;;;0.00;0.00;;;;;-146.67;100.00;57155.34;5087654;28;8820;-81
2023/09/01 07:52:29;;;;;;;;;1.00;0.00;;;;;-146.67;100.00;57155.34;5084565;28;8800;-81
2023/09/01 07:54:54;;;;;;;;;0.00;0.00;;;;;-146.67;100.00;57155.34;5097845;28;8775;-81
2023/09/01 07:57:20;;;;;;;;;0.00;0.00;;;;;-146.67;100.00;57155.34;5064197;28;9494;-80
2023/09/01 07:59:45;;;;;;;;;1.67;0.00;;;;;-146.67;100.00;57155.34;5064033;28;8820;-81
2023/09/01 08:02:13;;;;;;;;;0.00;0.00;;;;;-146.67;100.00;57155.34;5073962;28;8796;-81
2023/09/01 08:04:39;;;;;;;;;0.00;0.00;;;;;-146.67;100.00;57155.34;5062665;28;10146;-79
2023/09/01 08:07:05;;;;;;;;;0.00;0.00;;;;;-146.67;100.00;57155.34;5063411;28;9442;-79
2023/09/01 08:09:30;;;;;;;;;0.00;0.00;;;;;-146.67;100.00;57155.34;5081808;28;8739;-81
2023/09/01 08:11:56;;;;;;;;;0.00;0.00;;;;;-146.67;100.00;57155.34;5062867;28;10030;-80
2023/09/01 08:14:22;;;;;;;;;0.00;0.00;;;;;-146.67;100.00;57155.34;5080171;28;9920;-81
2023/09/01 08:16:47;;;;;;;;;0.00;0.00;;;;;-146.67;100.00;57155.34;5081206;28;8867;-81
2023/09/01 08:19:13;;;;;;;;;0.00;0.00;;;;;-146.67;100.00;57155.34;5097292;28;8834;-81
2023/09/01 08:21:38;;;;;;;;;1.00;0.00;;;;;-146.67;100.00;57155.34;5081410;28;8801;-81
2023/09/01 08:24:04;;;;;;;;;1.00;0.00;;;;;-146.67;100.00;57155.34;5060047;28;9999;-81
2023/09/01 08:26:30;;;;;;;;;0.00;0.00;;;;;-146.67;100.00;57155.34;5043441;28;8863;-81
2023/09/01 08:28:56;;;;;;;;;0.00;0.00;;;;;-146.67;100.00;57155.34;5078800;28;8723;-80
2023/09/01 08:31:21;;;;;;;;;0.00;0.00;;;;;-146.67;100.00;57155.34;5063046;28;9076;-83
2023/09/01 08:33:46;;;;;;;;;0.00;0.00;;;;;-146.67;100.00;57155.34;5063638;28;9926;-81
2023/09/01 08:36:12;;;;;;;;;0.33;0.00;;;;;-146.67;100.00;57155.34;5077085;28;8789;-81
2023/09/01 08:38:37;;;;;;;;;0.00;0.00;;;;;-146.67;100.00;57155.34;5057421;28;8856;-81
2023/09/01 08:41:04;;;;;;;;;0.00;0.00;;;;;-146.67;100.00;57155.34;5067582;28;8974;-82
2023/09/01 08:43:38;;;;;;;;;0.00;0.00;;;;;-146.67;100.00;57155.34;5062705;28;10057;-81
2023/09/01 08:46:04;;;;;;;;;0.33;0.00;;;;;-146.67;100.00;57155.34;5077642;28;9239;-80
2023/09/01 08:48:34;;;;;;;;;0.00;0.00;;;;;-146.67;100.00;57155.34;5063056;28;9236;-80
2023/09/01 08:51:00;;;;;;;;;0.00;0.00;;;;;-146.67;100.00;57155.34;5068870;28;8980;-81
2023/09/01 08:53:25;;;;;;;;;0.00;0.00;;;;;-146.67;100.00;57155.34;5084052;28;9311;-81
2023/09/01 08:55:52;;;;;;;;;0.00;0.00;;;;;-146.67;100.00;57155.34;5062554;28;10348;-81
2023/09/01 08:58:18;;;;;;;;;1.00;0.00;;;;;-146.67;100.00;57155.34;5080277;28;8828;-80
2023/09/01 09:00:44;;;;;;;;;0.00;0.00;;;;;-146.67;100.00;57155.34;5063341;28;9228;-80
2023/09/01 09:03:13;;;;;;;;;0.00;0.00;;;;;-146.67;100.00;57155.34;5069663;28;9949;-81
2023/09/01 09:05:39;;;;;;;;;0.67;0.00;;;;;-146.67;100.00;57155.34;5088267;28;9130;-80
2023/09/01 09:08:07;;;;;;;;;3.00;1.00;;;;;-146.67;100.00;57155.34;5072493;28;9135;-80
2023/09/01 09:10:38;;;;;;;;;1.00;0.00;;;;;-146.67;100.00;57155.34;5066930;28;9206;-80
2023/09/01 09:13:19;;;;;;;;;2.00;0.00;;;;;-146.67;100.00;57155.34;5079603;28;9366;-81
2023/09/01 09:15:44;;;;;;;;;0.00;0.00;;;;;-146.67;100.00;57155.34;5071287;28;9085;-80
2023/09/01 09:18:09;;;;;;;;;0.00;0.00;;;;;-146.67;100.00;57155.34;5070296;28;9098;-81
2023/09/01 09:20:37;;;;;;;;;0.00;0.00;;;;;-146.67;100.00;57155.34;5080041;28;8848;-80
2023/09/01 09:23:03;;;;;;;;;0.00;0.00;;;;;-146.67;100.00;57155.34;5061893;28;10396;-80
2023/09/01 09:25:32;;;;;;;;;0.33;0.00;;;;;-146.67;100.00;57155.34;5070326;28;9060;-81
2023/09/01 09:28:17;;;;;;;;;0.00;0.00;;;;;-146.67;100.00;57155.34;5087121;28;8746;-81
2023/09/01 09:30:50;;;;;;;;;0.67;0.33;;;;;-146.67;100.00;57155.34;5082667;28;8977;-81
2023/09/01 09:33:26;;;;;;;;;1.00;0.00;;;;;-146.67;100.00;57155.34;5071582;28;11240;-81
2023/09/01 09:35:51;;;;;;;;;0.33;0.33;;;;;-146.67;100.00;57155.34;5091657;28;9222;-81
2023/09/01 09:38:17;;;;;;;;;0.67;0.67;;;;;-146.67;100.00;57155.34;5082516;28;9181;-81
2023/09/01 09:40:59;;;;;;;;;0.00;0.00;;;;;-146.67;100.00;57155.34;5073248;28;8801;-80
2023/09/01 09:43:25;;;;;;;;;0.00;0.00;;;;;-146.67;100.00;57155.34;5065296;28;10027;-80
2023/09/01 09:45:54;;;;;;;;;0.00;0.00;;;;;-146.67;100.00;57155.34;5079571;28;9050;-80
2023/09/01 09:48:20;;;;;;;;;1.00;1.00;;;;;-146.67;100.00;57155.34;5065170;28;9077;-80
2023/09/01 09:50:51;;;;;;;;;1.00;1.00;;;;;-146.67;100.00;57155.34;5081990;28;9278;-80
2023/09/01 09:53:21;;;;;;;;;0.00;0.00;;;;;-146.67;100.00;57155.34;5075306;28;10190;-81
2023/09/01 09:55:49;;;;;;;;;1.00;0.00;;;;;-146.67;100.00;57155.34;5083180;28;8925;-80
2023/09/01 09:58:17;;;;;;;;;1.00;0.00;;;;;-146.67;100.00;57155.34;5083488;28;8911;-81
2023/09/01 10:00:50;;;;;;;;;0.00;0.00;;;;;-146.67;100.00;57155.34;5082618;28;8808;-80
2023/09/01 10:03:16;;;;;;;;;2.33;0.00;;;;;-146.67;100.00;57155.34;5083861;28;8965;-80
2023/09/01 10:05:43;;;;;;;;;0.67;0.00;;;;;-146.67;100.00;57155.34;5083603;28;8865;-80
2023/09/01 10:08:09;;;;;;;;;2.25;0.00;;;;;-146.67;100.00;57155.34;5083019;28;10287;-80
2023/09/01 10:10:35;;;;;;;;;0.67;0.00;;;;;-146.67;100.00;57155.34;5082533;28;9250;-80
2023/09/01 10:13:03;;;;;;;;;0.00;0.00;;;;;-146.67;100.00;57155.34;5071475;28;9970;-80
2023/09/01 10:15:32;;;;;;;;;0.00;0.00;;;;;-146.67;100.00;57155.34;5082708;28;8839;-80
2023/09/01 10:18:03;;;;;;;;;0.00;0.00;;;;;-146.67;100.00;57155.34;5078835;28;8856;-80
2023/09/01 10:20:35;;;;;;;;;0.67;0.00;;;;;-146.67;100.00;57155.34;5084474;28;8979;-81
2023/09/01 10:23:03;;;;;;;;;0.00;0.00;;;;;-146.67;100.00;57155.34;5102621;28;9070;-80
2023/09/01 10:25:29;;;;;;;;;0.00;0.00;;;;;-146.67;100.00;57155.34;5087365;28;8929;-80
2023/09/01 10:28:06;;;;;;;;;0.00;0.00;;;;;-146.67;100.00;57155.34;5080209;28;8735;-81
2023/09/01 10:30:42;;;;;;;;;1.00;0.00;;;;;-146.67;100.00;57155.34;5082439;28;9459;-79
2023/09/01 10:33:12;;;;;;;;;0.00;0.00;;;;;-146.67;100.00;57155.34;5080546;28;10038;-79
2023/09/01 10:35:41;;;;;;;;;2.00;0.00;;;;;-146.67;100.00;57155.34;5082764;28;8849;-81
2023/09/01 10:38:34;;;;;;;;;0.00;0.00;;;;;-146.67;100.00;57155.34;5065029;28;9036;-80
2023/09/01 10:41:00;;;;;;;;;0.00;0.00;;;;;-146.67;100.00;57155.34;5064364;28;8995;-82
2023/09/01 10:43:31;;;;;;;;;2.00;0.00;;;;;-146.67;100.00;57155.34;5083040;28;9127;-82
2023/09/01 10:46:11;;;;;;;;;1.00;0.00;;;;;-146.67;100.00;57155.34;5065558;28;8771;-82
2023/09/01 10:48:53;;;;;;;;;0.00;0.00;;;;;-146.67;100.00;57155.34;5083565;28;9027;-83
2023/09/01 10:51:20;;;;;;;;;0.00;0.00;;;;;-146.67;100.00;57155.34;5079583;28;8769;-82
2023/09/01 10:53:45;;;;;;;;;0.00;0.00;;;;;-146.67;100.00;57155.34;5103880;28;8926;-82
2023/09/01 10:56:17;;;;;;;;;0.00;0.00;;;;;-146.67;100.00;57155.34;5093645;28;8923;-83
2023/09/01 10:58:47;;;;;;;;;0.00;0.00;;;;;-146.67;100.00;57155.34;5065476;28;8794;-83
2023/09/01 11:01:30;;;;;;;;;0.00;0.00;;;;;-146.67;100.00;57155.34;5064935;28;8972;-78
2023/09/01 11:04:16;;;;;;;;;1.25;0.25;;;;;-146.67;100.00;57155.34;5065667;28;10100;-80
2023/09/01 11:06:56;;;;;;;;;0.00;0.00;;;;;-146.67;100.00;57155.34;5082828;28;9728;-81
2023/09/01 11:09:47;;;;;;;;;1.00;0.00;;;;;-146.67;100.00;57155.34;5064471;28;8955;-80
2023/09/01 11:12:13;;;;;;;;;0.00;0.00;;;;;-146.67;100.00;57155.34;5089464;28;8804;-81
2023/09/01 11:14:56;;;;;;;;;0.00;0.00;;;;;-146.67;100.00;57155.34;5066892;28;10019;-81
2023/09/01 11:17:37;;;;;;;;;0.00;0.00;;;;;-146.67;100.00;57155.34;5088921;28;11330;-81